Bondville, VT (05340)

4:03 PM EDT on August 22, 2014 (GMT -0400)
half way up Stratton Mountain | Change Station
CLOSE
Current Station
Personal Weather Station
Location: Bondville, VT
Elevation: 2550 ft
Nearby Weather Stations

Elev 2550 ft 43.11 °N, 72.92 °W | Updated 2 minutes ago

Overcast
Overcast
56.7 °F
Feels Like 56.7 °F
N
8.0
Wind Variable Wind from East
Gusts 15.0 mph

Today
High -- | Low -- °F
--% Chance of Precip.
Yesterday
High -- | Low -- °F
Precip. -- in
6:04 AM 7:43 PM
Waning Crescent, 7% visible
Pressure 30.12 in
Visibility 10.0 miles
Clouds Scattered Clouds 1700 ft
Mostly Cloudy 4400 ft
Overcast 5500 ft
Dew Point 57 °F
Humidity 100%
Rainfall 0.46 in
Snow Depth Not available.
UV 2 out of 12
Pollen 3.80 out of 12
Ozone Good
Flu Activity Not available.
METAR KVSF 221954Z AUTO 00000KT 10SM SCT017 BKN044 OVC055 17/16 A3012 RMK AO2 RAB1858E11 SLP199 P0000 T01720156

More Conditions Fewer Conditions

Pressure 30.12 in
Visibility 10.0 miles
Clouds Scattered Clouds 1700 ft
Mostly Cloudy 4400 ft
Overcast 5500 ft
Dew Point 57 °F
Humidity 100%
Rainfall 0.46 in
Snow Depth Not available.
UV 2 out of 12
Pollen 3.80 out of 12
Ozone Good
Flu Activity Not available.
METAR KVSF 221954Z AUTO 00000KT 10SM SCT017 BKN044 OVC055 17/16 A3012 RMK AO2 RAB1858E11 SLP199 P0000 T01720156

More Conditions Fewer Conditions

10-Day Weather Forecast

Almanac

Astronomy

Aug. 22, 2014 Rise Set
Actual Time 6:04 AM EDT 7:43 PM EDT
Civil Twilight 5:34 AM EDT 8:13 PM EDT
Nautical Twilight 4:58 AM EDT 8:49 PM EDT
Astronomical Twilight 4:19 AM EDT 9:28 PM EDT
Moon 3:22 AM EDT 5:51 PM EDT
Length of Visible Light 14h 38m
Length of Day
13h 38m
Tomorrow will be 2m 43s shorter.
Waning Crescent, 7% of the Moon is Illuminated
Today
Waning Crescent
Aug 25
New
Sep 2
First Quarter
Sep 8
Full
Sep 15
Last Quarter

Today's Extremes

State Highs State Lows

Community

WunderPhotos

Upload Photos

1,746,239 photos uploaded!

Nearby

Air Quality

  Air Quality AQ Index Pollutant
Yesterday Good
OZONE
Yesterday Good
PM2.5
Current Good
OZONE
Friday Good
PM2.5
Friday Good
OZONE
Saturday Good
PM2.5
Saturday Good
OZONE
Sunday Good
PM2.5
Sunday Good
OZONE
Monday Good
PM2.5
Monday Good
OZONE

Snow Depth

Station Depth Elevation
No new snow has been reported.

Earthquake Activity

City Distance Mag. Time & Date
No recent earthquake activity has been reported nearby.
Minimum magnitude displayed is 2.5.

Coastal Water Temperatures

Place Temperature
No Stations Reporting

Nearby Weather Stations